Time;durP1;ratioP1;P1;durP2;ratioP2;P2;SDS_P1;SDS_P2;PMS_P1;PMS_P2;Temp;Humidity;BMP_temperature;BMP_pressure;BME280_temperature;BME280_humidity;BME280_pressure;Samples;Min_cycle;Max_cycle;Signal;HPM_P1;HPM_P2
2022/01/09 00:00:58;;;;;;;7.05;5.15;;;4.80;99.90;;;;;;5014243;28;20159;-80
2022/01/09 00:03:24;;;;;;;7.10;5.57;;;4.80;99.90;;;;;;5015216;28;20439;-80
2022/01/09 00:05:49;;;;;;;5.25;4.70;;;4.80;99.90;;;;;;5014899;28;20045;-80
2022/01/09 00:08:15;;;;;;;6.85;5.28;;;4.80;99.90;;;;;;5014661;28;20052;-79
2022/01/09 00:10:46;;;;;;;6.25;4.95;;;4.80;99.90;;;;;;5015112;28;20053;-79
2022/01/09 00:13:12;;;;;;;5.57;5.03;;;4.80;99.90;;;;;;5016144;28;20192;-79
2022/01/09 00:15:38;;;;;;;6.00;5.32;;;4.90;99.90;;;;;;5015735;28;20626;-79
2022/01/09 00:18:03;;;;;;;6.90;4.90;;;4.80;99.90;;;;;;5015093;28;20049;-80
2022/01/09 00:20:29;;;;;;;5.40;4.90;;;4.80;99.90;;;;;;5016226;28;20227;-79
2022/01/09 00:22:55;;;;;;;6.45;5.82;;;4.90;99.90;;;;;;5015335;28;20137;-78
2022/01/09 00:25:22;;;;;;;6.10;4.80;;;4.80;99.90;;;;;;5016614;28;20037;-77
2022/01/09 00:27:50;;;;;;;6.60;4.63;;;4.90;99.90;;;;;;5014624;28;20049;-77
2022/01/09 00:30:19;;;;;;;6.35;5.55;;;4.90;99.90;;;;;;5014636;28;20115;-77
2022/01/09 00:32:45;;;;;;;5.28;4.70;;;4.90;99.90;;;;;;5014850;28;20052;-78
2022/01/09 00:35:12;;;;;;;5.25;4.75;;;4.90;99.90;;;;;;5016273;28;20045;-76
2022/01/09 00:37:38;;;;;;;5.93;5.18;;;4.90;99.90;;;;;;5014727;28;20053;-78
2022/01/09 00:40:08;;;;;;;5.40;4.63;;;4.90;99.90;;;;;;5015069;28;20053;-76
2022/01/09 00:42:34;;;;;;;5.75;4.68;;;4.90;99.90;;;;;;5014719;28;20057;-78
2022/01/09 00:45:00;;;;;;;5.28;4.82;;;4.90;99.90;;;;;;5016820;28;20590;-80
2022/01/09 00:47:26;;;;;;;6.82;5.43;;;4.90;99.90;;;;;;5015907;28;20057;-79
2022/01/09 00:49:51;;;;;;;6.18;4.97;;;4.90;99.90;;;;;;5015389;28;20536;-78
2022/01/09 00:52:18;;;;;;;4.40;4.03;;;4.90;99.90;;;;;;5014872;28;20053;-79
2022/01/09 00:54:43;;;;;;;6.47;5.50;;;4.90;99.90;;;;;;5015343;28;20792;-79
2022/01/09 00:57:09;;;;;;;6.88;6.13;;;5.00;99.90;;;;;;5014715;28;20103;-78
2022/01/09 00:59:35;;;;;;;6.85;4.82;;;5.00;99.90;;;;;;5016780;28;20045;-78
2022/01/09 01:02:00;;;;;;;5.70;5.10;;;4.90;99.90;;;;;;5000881;28;20077;-78
2022/01/09 01:04:26;;;;;;;7.60;5.60;;;4.90;99.90;;;;;;4995007;28;20704;-78
2022/01/09 01:06:52;;;;;;;5.82;5.00;;;5.00;99.90;;;;;;4996075;28;20060;-78
2022/01/09 01:09:20;;;;;;;5.53;5.03;;;4.90;99.90;;;;;;4997191;28;20129;-78
2022/01/09 01:11:47;;;;;;;6.28;5.68;;;5.00;99.90;;;;;;5000841;28;20049;-78
2022/01/09 01:14:13;;;;;;;6.25;5.45;;;5.00;99.90;;;;;;5017194;28;20053;-78
2022/01/09 01:16:39;;;;;;;6.65;4.95;;;5.00;99.90;;;;;;5017119;28;20049;-77
2022/01/09 01:19:06;;;;;;;8.10;4.90;;;5.00;99.90;;;;;;5018430;28;20049;-77
2022/01/09 01:21:32;;;;;;;5.97;4.80;;;5.00;99.90;;;;;;5017227;28;20053;-78
2022/01/09 01:23:58;;;;;;;6.13;5.60;;;5.00;99.90;;;;;;5017547;28;20497;-77
2022/01/09 01:26:23;;;;;;;5.72;5.13;;;5.00;99.90;;;;;;5019255;28;20049;-77
2022/01/09 01:28:49;;;;;;;7.05;5.55;;;5.00;99.90;;;;;;5018807;28;20068;-77
2022/01/09 01:31:15;;;;;;;7.82;6.20;;;5.00;99.90;;;;;;5019083;28;20053;-77
2022/01/09 01:33:41;;;;;;;6.88;6.10;;;5.10;99.90;;;;;;5018095;28;20776;-77
2022/01/09 01:36:06;;;;;;;5.85;5.18;;;5.00;99.90;;;;;;5017919;28;20930;-78
2022/01/09 01:38:33;;;;;;;6.68;6.07;;;5.00;99.90;;;;;;5018474;28;20056;-78
2022/01/09 01:40:58;;;;;;;7.97;5.90;;;5.00;99.90;;;;;;5020830;28;20071;-78
2022/01/09 01:43:25;;;;;;;7.13;6.13;;;5.10;99.90;;;;;;5039764;28;20045;-79
2022/01/09 01:45:51;;;;;;;8.48;7.43;;;5.00;99.90;;;;;;5020657;28;20143;-78
2022/01/09 01:48:18;;;;;;;11.18;6.95;;;5.00;99.90;;;;;;5021421;28;20055;-78
2022/01/09 01:50:46;;;;;;;7.82;6.88;;;5.00;99.90;;;;;;5039171;28;20122;-78
2022/01/09 01:53:16;;;;;;;6.70;6.10;;;5.00;99.90;;;;;;5021267;28;20064;-78
2022/01/09 01:55:44;;;;;;;7.38;6.43;;;5.10;99.90;;;;;;5040135;28;20095;-78
2022/01/09 01:58:11;;;;;;;7.95;6.28;;;5.10;99.90;;;;;;5039889;28;20534;-78
2022/01/09 02:00:39;;;;;;;7.78;6.85;;;5.00;99.90;;;;;;5039387;28;20040;-78
2022/01/09 02:03:05;;;;;;;11.05;8.10;;;5.10;99.90;;;;;;5021706;28;20229;-78
2022/01/09 02:05:30;;;;;;;8.23;7.40;;;5.10;99.90;;;;;;5039729;28;20040;-78
2022/01/09 02:07:58;;;;;;;8.55;7.47;;;5.10;99.90;;;;;;5021289;28;20056;-78
2022/01/09 02:10:24;;;;;;;9.45;7.72;;;5.10;99.90;;;;;;5021182;28;20435;-78
2022/01/09 02:12:52;;;;;;;10.05;6.80;;;5.10;99.90;;;;;;5038493;28;20049;-78
2022/01/09 02:15:44;;;;;;;9.20;8.05;;;5.20;99.90;;;;;;5020596;28;20049;-78
2022/01/09 02:18:12;;;;;;;8.25;7.32;;;5.20;99.90;;;;;;5039706;28;20057;-78
2022/01/09 02:20:39;;;;;;;7.68;6.25;;;5.20;99.90;;;;;;5039205;28;20083;-78
2022/01/09 02:23:07;;;;;;;9.35;8.13;;;5.20;99.90;;;;;;5021526;28;20152;-78
2022/01/09 02:25:36;;;;;;;8.13;7.32;;;5.10;99.90;;;;;;5039417;28;20044;-77
2022/01/09 02:28:03;;;;;;;8.77;7.13;;;5.20;99.90;;;;;;5020975;28;20071;-77
2022/01/09 02:30:32;;;;;;;8.82;7.30;;;5.20;99.90;;;;;;5039442;28;20048;-77
2022/01/09 02:33:01;;;;;;;9.07;7.45;;;5.20;99.90;;;;;;5038892;28;20131;-76
2022/01/09 02:35:27;;;;;;;7.78;7.05;;;5.20;99.90;;;;;;5038798;28;20119;-77
2022/01/09 02:37:52;;;;;;;10.00;8.10;;;5.20;99.90;;;;;;5038696;28;20436;-77
2022/01/09 02:40:18;;;;;;;9.43;7.80;;;5.20;99.90;;;;;;5038621;28;20056;-77
2022/01/09 02:42:44;;;;;;;10.20;8.10;;;5.30;99.90;;;;;;5020054;28;20064;-77
2022/01/09 02:45:09;;;;;;;8.52;7.68;;;5.30;99.90;;;;;;5021566;28;20091;-77
2022/01/09 02:47:37;;;;;;;9.85;8.40;;;5.30;99.90;;;;;;5021508;28;20698;-77
2022/01/09 02:50:26;;;;;;;9.80;8.00;;;5.30;99.90;;;;;;5039153;28;20126;-74
2022/01/09 02:52:58;;;;;;;9.68;7.35;;;5.30;99.90;;;;;;5039753;28;20041;-78
2022/01/09 02:55:25;;;;;;;9.48;7.28;;;5.40;99.90;;;;;;5021494;28;20057;-78
2022/01/09 02:57:54;;;;;;;8.93;6.57;;;5.40;99.90;;;;;;5039043;28;20052;-79
2022/01/09 03:00:23;;;;;;;9.60;6.95;;;5.40;99.90;;;;;;5038577;28;20040;-79
2022/01/09 03:02:49;;;;;;;8.07;6.38;;;5.40;99.90;;;;;;5020533;28;20059;-78
2022/01/09 03:05:15;;;;;;;11.20;6.95;;;5.40;99.90;;;;;;5014099;28;20041;-80
2022/01/09 03:07:42;;;;;;;10.07;7.20;;;5.50;99.90;;;;;;5037776;28;20413;-79
2022/01/09 03:10:10;;;;;;;10.63;6.15;;;5.50;99.90;;;;;;5019313;28;20052;-79
2022/01/09 03:12:37;;;;;;;9.13;6.50;;;5.50;99.90;;;;;;5020734;28;20136;-79
2022/01/09 03:15:04;;;;;;;10.88;6.93;;;5.50;99.90;;;;;;5038509;28;20589;-79
2022/01/09 03:17:29;;;;;;;9.73;6.20;;;5.60;99.90;;;;;;5020735;28;20091;-77
2022/01/09 03:19:55;;;;;;;12.52;7.80;;;5.60;99.90;;;;;;5020778;28;20481;-79
2022/01/09 03:22:20;;;;;;;7.75;6.25;;;5.60;99.90;;;;;;5020446;28;20053;-80
2022/01/09 03:24:46;;;;;;;8.93;5.78;;;5.60;99.90;;;;;;5037031;28;20029;-80
2022/01/09 03:27:12;;;;;;;7.65;4.68;;;5.70;99.90;;;;;;5020360;28;20048;-80
2022/01/09 03:29:39;;;;;;;12.38;5.22;;;5.80;99.90;;;;;;5038016;28;20052;-79
2022/01/09 03:32:06;;;;;;;8.13;5.95;;;5.70;99.90;;;;;;5020852;28;20076;-78
2022/01/09 03:34:32;;;;;;;9.50;5.82;;;5.80;99.90;;;;;;5038813;28;20058;-79
2022/01/09 03:36:58;;;;;;;8.60;5.43;;;5.80;99.90;;;;;;5038461;28;20123;-78
2022/01/09 03:39:24;;;;;;;8.13;5.88;;;5.90;99.90;;;;;;5020064;28;20136;-78
2022/01/09 03:41:49;;;;;;;7.38;6.10;;;5.90;99.90;;;;;;5018976;28;20114;-78
2022/01/09 03:44:15;;;;;;;12.65;6.47;;;5.80;99.90;;;;;;5038164;28;20140;-77
2022/01/09 03:46:41;;;;;;;8.60;5.82;;;5.90;99.90;;;;;;5019869;28;20392;-78
2022/01/09 03:49:06;;;;;;;10.75;5.28;;;5.90;99.90;;;;;;5037221;28;20107;-77
2022/01/09 03:51:36;;;;;;;11.25;4.50;;;5.90;99.90;;;;;;5019342;28;20044;-78
2022/01/09 03:54:06;;;;;;;11.80;5.57;;;6.00;99.90;;;;;;5020208;28;20049;-79
2022/01/09 03:56:32;;;;;;;13.80;5.55;;;6.00;99.90;;;;;;5038932;28;20083;-79
2022/01/09 03:58:59;;;;;;;14.20;4.75;;;6.00;99.90;;;;;;5020450;28;20420;-78
2022/01/09 04:01:25;;;;;;;14.00;4.75;;;6.00;99.90;;;;;;5038264;28;20060;-77
2022/01/09 04:03:51;;;;;;;14.55;5.20;;;6.10;99.90;;;;;;5020445;28;20096;-79
2022/01/09 04:06:17;;;;;;;12.43;5.78;;;6.10;99.90;;;;;;5037438;28;20071;-77
2022/01/09 04:08:42;;;;;;;20.00;5.82;;;6.20;99.90;;;;;;5021110;28;20404;-78
2022/01/09 04:11:09;;;;;;;13.82;5.55;;;6.20;99.90;;;;;;5038326;28;20152;-78
2022/01/09 04:13:36;;;;;;;22.77;6.00;;;6.30;99.90;;;;;;5038263;28;20865;-78
2022/01/09 04:16:02;;;;;;;17.58;6.22;;;6.30;99.90;;;;;;5020513;28;20048;-77
2022/01/09 04:18:28;;;;;;;16.52;6.85;;;6.40;99.90;;;;;;5037565;28;20041;-77
2022/01/09 04:20:54;;;;;;;19.42;5.22;;;6.40;99.90;;;;;;5037521;28;20628;-76
2022/01/09 04:23:21;;;;;;;23.35;6.22;;;6.40;99.90;;;;;;5038189;28;20049;-76
2022/01/09 04:25:48;;;;;;;19.67;6.80;;;6.50;99.90;;;;;;5020820;28;20056;-77
2022/01/09 04:28:15;;;;;;;20.55;7.38;;;6.50;99.90;;;;;;5019677;28;20049;-76
2022/01/09 04:30:41;;;;;;;17.25;5.78;;;6.60;99.90;;;;;;5038202;28;20102;-80
2022/01/09 04:33:09;;;;;;;30.85;8.07;;;6.60;99.90;;;;;;5037656;28;20102;-79
2022/01/09 04:35:34;;;;;;;26.52;7.15;;;6.60;99.90;;;;;;5019962;28;20048;-76
2022/01/09 04:38:00;;;;;;;20.45;6.20;;;6.60;99.90;;;;;;5023541;28;20283;-79
2022/01/09 04:40:25;;;;;;;16.83;6.43;;;6.70;99.90;;;;;;5041507;28;20055;-76
2022/01/09 04:42:58;;;;;;;15.07;5.68;;;6.70;99.90;;;;;;5023367;28;20560;-76
2022/01/09 04:45:25;;;;;;;19.20;6.82;;;6.70;99.90;;;;;;5023431;28;20049;-77
2022/01/09 04:47:54;;;;;;;17.65;6.03;;;6.70;99.90;;;;;;5042102;28;20121;-78
2022/01/09 04:50:27;;;;;;;17.77;5.75;;;6.70;99.90;;;;;;5041055;28;20492;-77
2022/01/09 04:53:02;;;;;;;15.82;5.40;;;6.70;99.90;;;;;;5041957;28;20037;-77
2022/01/09 04:55:28;;;;;;;26.73;6.78;;;6.70;99.90;;;;;;5023188;28;20068;-77
2022/01/09 04:57:55;;;;;;;13.55;6.97;;;6.70;99.90;;;;;;5042309;28;20056;-77
2022/01/09 05:00:21;;;;;;;18.15;5.60;;;6.70;99.90;;;;;;5023684;28;20057;-77
2022/01/09 05:02:46;;;;;;;23.92;6.20;;;6.70;99.90;;;;;;5041096;28;20053;-76
2022/01/09 05:05:12;;;;;;;22.42;5.40;;;6.70;99.90;;;;;;5024029;28;20365;-77
2022/01/09 05:07:39;;;;;;;16.38;5.40;;;6.70;99.90;;;;;;5022970;28;20110;-77
2022/01/09 05:10:06;;;;;;;20.60;5.63;;;6.70;99.90;;;;;;5022700;28;20053;-77
2022/01/09 05:12:32;;;;;;;19.23;5.63;;;6.70;99.90;;;;;;5041300;28;20049;-77
2022/01/09 05:14:58;;;;;;;21.25;6.25;;;6.70;99.90;;;;;;5041056;28;20072;-77
2022/01/09 05:17:24;;;;;;;15.02;4.90;;;6.70;99.90;;;;;;5040912;28;20133;-78
2022/01/09 05:19:52;;;;;;;35.53;8.07;;;6.70;99.90;;;;;;5022876;28;20404;-79
2022/01/09 05:22:18;;;;;;;18.23;6.80;;;6.70;99.90;;;;;;5041177;28;20041;-80
2022/01/09 05:24:43;;;;;;;11.93;5.90;;;6.70;99.90;;;;;;5041054;28;20174;-80
2022/01/09 05:27:09;;;;;;;22.52;5.75;;;6.70;99.90;;;;;;5024110;28;20056;-80
2022/01/09 05:29:34;;;;;;;14.20;4.47;;;6.70;99.90;;;;;;5023212;28;20162;-79
2022/01/09 05:32:00;;;;;;;20.90;6.18;;;6.70;99.90;;;;;;5040217;28;20067;-77
2022/01/09 05:34:26;;;;;;;16.63;5.32;;;6.70;99.90;;;;;;5039947;28;20490;-78
2022/01/09 05:36:51;;;;;;;16.13;5.43;;;6.70;99.90;;;;;;5022226;28;20041;-78
2022/01/09 05:39:17;;;;;;;16.55;4.35;;;6.70;99.90;;;;;;5039257;28;20049;-78
2022/01/09 05:41:44;;;;;;;12.90;4.70;;;6.70;99.90;;;;;;5039318;28;20618;-77
2022/01/09 05:44:10;;;;;;;22.15;4.93;;;6.70;99.90;;;;;;5039963;28;20048;-78
2022/01/09 05:46:35;;;;;;;12.55;4.70;;;6.70;99.90;;;;;;5040043;28;20075;-77
2022/01/09 05:49:01;;;;;;;14.43;4.18;;;6.70;99.90;;;;;;5039834;28;20159;-77
2022/01/09 05:51:27;;;;;;;17.38;4.72;;;6.40;99.90;;;;;;5022041;28;20068;-77
2022/01/09 05:53:52;;;;;;;12.80;4.60;;;6.60;99.90;;;;;;5038964;28;20495;-78
2022/01/09 05:56:18;;;;;;;12.38;4.78;;;6.60;99.90;;;;;;5037348;28;20059;-78
2022/01/09 05:58:43;;;;;;;15.75;4.13;;;6.60;99.90;;;;;;5019003;28;20062;-77
2022/01/09 06:01:09;;;;;;;15.65;5.57;;;6.60;99.90;;;;;;5019296;28;20140;-78
2022/01/09 06:03:35;;;;;;;15.43;5.50;;;6.70;99.90;;;;;;5019540;28;20052;-78
2022/01/09 06:06:00;;;;;;;11.23;3.90;;;6.50;99.90;;;;;;5019533;28;20083;-77
2022/01/09 06:08:26;;;;;;;11.95;4.00;;;6.50;99.90;;;;;;5036824;28;20040;-78
2022/01/09 06:10:52;;;;;;;12.15;3.72;;;6.50;99.90;;;;;;5036874;28;20106;-78
2022/01/09 06:13:18;;;;;;;12.75;6.25;;;6.50;99.90;;;;;;5036580;28;20841;-78
2022/01/09 06:15:43;;;;;;;14.57;3.80;;;6.50;99.90;;;;;;5019105;28;20438;-78
2022/01/09 06:18:09;;;;;;;14.73;4.45;;;6.50;99.90;;;;;;5019299;28;20067;-78
2022/01/09 06:20:35;;;;;;;12.82;5.43;;;6.50;99.90;;;;;;5018553;28;20037;-78
2022/01/09 06:23:00;;;;;;;9.73;3.50;;;6.50;99.90;;;;;;5036439;28;20052;-79
2022/01/09 06:25:26;;;;;;;12.95;4.97;;;6.50;99.90;;;;;;5017754;28;20045;-78
2022/01/09 06:27:51;;;;;;;11.27;4.97;;;6.50;99.90;;;;;;5036076;28;20155;-78
2022/01/09 06:30:17;;;;;;;13.50;3.70;;;6.50;99.90;;;;;;5018201;28;20062;-79
2022/01/09 06:32:43;;;;;;;13.45;5.28;;;6.50;99.90;;;;;;5036753;28;20048;-79
2022/01/09 06:35:10;;;;;;;13.27;3.90;;;6.40;99.90;;;;;;5017528;28;20037;-78
2022/01/09 06:37:36;;;;;;;9.45;3.13;;;6.40;99.90;;;;;;5018552;28;20048;-78
2022/01/09 06:40:02;;;;;;;9.70;3.40;;;6.40;99.90;;;;;;5035936;28;20142;-78
2022/01/09 06:42:28;;;;;;;8.95;3.33;;;6.40;99.90;;;;;;5035924;28;20079;-78
2022/01/09 06:44:53;;;;;;;12.25;4.30;;;6.40;99.90;;;;;;5018161;28;20053;-78
2022/01/09 06:47:19;;;;;;;11.50;4.38;;;6.40;99.90;;;;;;5036762;28;20060;-78
2022/01/09 06:49:44;;;;;;;9.73;4.25;;;6.40;99.90;;;;;;5018336;28;20048;-79
2022/01/09 06:52:10;;;;;;;7.68;2.95;;;6.30;99.90;;;;;;5019465;28;20057;-78
2022/01/09 06:54:35;;;;;;;12.27;3.53;;;6.40;99.90;;;;;;5036179;28;20044;-79
2022/01/09 06:57:02;;;;;;;12.20;3.08;;;6.30;99.90;;;;;;5018268;28;20771;-78
2022/01/09 06:59:27;;;;;;;8.63;2.65;;;6.30;99.90;;;;;;5017458;28;20390;-78
2022/01/09 07:01:53;;;;;;;10.88;3.33;;;6.30;99.90;;;;;;5036032;28;20141;-77
2022/01/09 07:04:18;;;;;;;8.73;2.85;;;6.00;99.90;;;;;;5017989;28;20056;-77
2022/01/09 07:06:44;;;;;;;16.33;5.90;;;6.30;99.90;;;;;;5036079;28;20076;-78
2022/01/09 07:09:09;;;;;;;10.77;3.88;;;6.30;99.90;;;;;;5035603;28;20060;-77
2022/01/09 07:11:35;;;;;;;7.90;3.78;;;6.30;99.90;;;;;;5017793;28;20045;-77
2022/01/09 07:14:00;;;;;;;18.67;3.55;;;6.30;99.90;;;;;;5017754;28;20049;-77
2022/01/09 07:16:26;;;;;;;9.43;3.15;;;6.20;99.90;;;;;;5017055;28;20076;-77
2022/01/09 07:18:52;;;;;;;9.30;3.33;;;6.30;99.90;;;;;;5034930;28;20145;-76
2022/01/09 07:21:17;;;;;;;10.88;3.33;;;6.30;99.90;;;;;;5016901;28;20114;-76
2022/01/09 07:23:43;;;;;;;13.45;4.65;;;6.30;99.90;;;;;;5034677;28;20745;-76
2022/01/09 07:26:09;;;;;;;10.70;4.32;;;6.30;99.90;;;;;;5017071;28;20037;-76
2022/01/09 07:28:34;;;;;;;10.38;3.15;;;6.30;99.90;;;;;;5035615;28;20214;-76
2022/01/09 07:31:00;;;;;;;19.08;4.22;;;6.30;99.90;;;;;;5017766;28;20051;-76
2022/01/09 07:33:25;;;;;;;12.02;4.65;;;6.30;99.90;;;;;;5017329;28;20060;-77
2022/01/09 07:35:51;;;;;;;9.43;3.17;;;6.20;99.90;;;;;;5035548;28;20052;-77
2022/01/09 07:38:17;;;;;;;10.88;3.53;;;6.20;99.90;;;;;;5016683;28;20060;-77
2022/01/09 07:40:42;;;;;;;15.55;4.50;;;6.20;99.90;;;;;;5035090;28;20102;-78
2022/01/09 07:43:08;;;;;;;6.63;2.75;;;6.20;99.90;;;;;;5013472;28;20067;-77
2022/01/09 07:45:34;;;;;;;18.02;5.95;;;6.20;99.90;;;;;;5016479;28;20053;-77
2022/01/09 07:48:00;;;;;;;8.73;3.30;;;6.20;99.90;;;;;;5014789;28;20554;-78
2022/01/09 07:50:27;;;;;;;5.65;2.85;;;6.20;99.90;;;;;;5033745;28;20051;-78
2022/01/09 07:52:53;;;;;;;7.57;2.67;;;6.20;99.90;;;;;;5015712;28;20049;-81
2022/01/09 07:55:20;;;;;;;4.07;3.10;;;6.20;99.90;;;;;;5015433;28;20152;-79
2022/01/09 07:57:47;;;;;;;14.60;3.25;;;6.10;99.90;;;;;;5033984;28;20146;-80
2022/01/09 08:00:14;;;;;;;6.25;3.70;;;6.10;99.90;;;;;;5033775;28;20041;-78
2022/01/09 08:02:40;;;;;;;11.45;2.90;;;6.10;99.90;;;;;;5015651;28;20061;-78
2022/01/09 08:05:06;;;;;;;7.47;2.92;;;6.10;99.90;;;;;;5016233;28;20049;-78
2022/01/09 08:07:32;;;;;;;7.78;2.80;;;6.10;99.90;;;;;;5033251;28;20121;-77
2022/01/09 08:09:58;;;;;;;7.53;3.55;;;6.00;99.90;;;;;;5017590;28;20057;-78
2022/01/09 08:12:23;;;;;;;6.35;3.67;;;6.00;99.90;;;;;;5020648;28;20051;-78
2022/01/09 08:14:49;;;;;;;8.32;3.03;;;6.00;99.90;;;;;;5039431;28;20118;-78
2022/01/09 08:17:15;;;;;;;8.95;2.97;;;6.00;99.90;;;;;;5020403;28;20142;-78
2022/01/09 08:19:40;;;;;;;6.85;2.60;;;6.00;99.90;;;;;;5019531;28;20147;-77
2022/01/09 08:22:07;;;;;;;10.13;3.15;;;6.00;99.90;;;;;;5019073;28;20037;-77
2022/01/09 08:24:33;;;;;;;10.35;3.28;;;6.00;99.90;;;;;;5019098;28;20132;-76
2022/01/09 08:27:00;;;;;;;8.50;2.72;;;6.00;99.90;;;;;;5037358;28;20153;-78
2022/01/09 08:29:26;;;;;;;7.57;3.00;;;6.00;99.90;;;;;;5017254;28;20120;-78
2022/01/09 08:31:51;;;;;;;6.15;1.90;;;6.00;99.90;;;;;;5034092;28;20044;-79
2022/01/09 08:34:17;;;;;;;3.78;2.58;;;6.00;99.90;;;;;;5034266;28;20044;-78
2022/01/09 08:36:42;;;;;;;8.35;2.33;;;6.00;99.90;;;;;;5016433;28;20056;-77
2022/01/09 08:39:10;;;;;;;8.18;3.15;;;6.00;99.90;;;;;;5033606;28;20040;-75
2022/01/09 08:41:36;;;;;;;6.88;2.53;;;6.00;99.90;;;;;;5032794;28;20084;-78
2022/01/09 08:44:04;;;;;;;8.18;2.10;;;6.00;99.90;;;;;;5033444;28;20156;-78
2022/01/09 08:46:30;;;;;;;10.85;3.22;;;6.00;99.90;;;;;;5015284;28;20127;-77
2022/01/09 08:48:55;;;;;;;4.80;2.78;;;6.00;99.90;;;;;;5033379;28;20045;-79
2022/01/09 08:51:21;;;;;;;5.95;1.92;;;6.00;99.90;;;;;;5033584;28;20053;-78
2022/01/09 08:53:50;;;;;;;9.07;2.90;;;6.00;99.90;;;;;;5033815;28;20123;-78
2022/01/09 08:56:27;;;;;;;8.15;2.35;;;6.00;99.90;;;;;;5015221;28;20125;-78
2022/01/09 08:58:53;;;;;;;11.43;2.63;;;6.00;99.90;;;;;;5031226;28;20040;-78
2022/01/09 09:01:19;;;;;;;5.18;1.60;;;6.10;99.90;;;;;;5015408;28;20046;-78
2022/01/09 09:03:45;;;;;;;2.85;1.70;;;6.10;99.90;;;;;;5032784;28;20798;-78
2022/01/09 09:06:15;;;;;;;6.35;2.08;;;6.10;99.90;;;;;;5015611;28;20052;-78
2022/01/09 09:08:42;;;;;;;5.13;1.90;;;6.10;99.90;;;;;;5033300;28;20053;-79
2022/01/09 09:11:11;;;;;;;6.50;1.92;;;6.00;99.90;;;;;;5013400;28;20123;-79
2022/01/09 09:13:36;;;;;;;8.15;3.08;;;6.10;99.90;;;;;;5033694;28;20400;-79
2022/01/09 09:16:03;;;;;;;3.60;2.35;;;6.10;99.90;;;;;;5017109;28;20049;-79
2022/01/09 09:18:29;;;;;;;4.78;2.25;;;6.10;99.90;;;;;;5032625;28;20045;-80
2022/01/09 09:20:55;;;;;;;6.90;2.20;;;6.10;99.90;;;;;;5016874;28;20079;-79
2022/01/09 09:23:21;;;;;;;9.25;3.15;;;6.20;99.90;;;;;;5034705;28;20052;-80
2022/01/09 09:25:47;;;;;;;4.97;2.47;;;6.20;99.90;;;;;;5036138;28;20041;-80
2022/01/09 09:28:13;;;;;;;7.32;2.22;;;6.10;99.90;;;;;;5018472;28;20045;-80
2022/01/09 09:30:38;;;;;;;5.90;2.58;;;6.20;99.90;;;;;;5036289;28;20047;-80
2022/01/09 09:33:05;;;;;;;8.23;2.20;;;6.20;99.90;;;;;;5018067;28;20566;-80
2022/01/09 09:35:31;;;;;;;6.82;2.55;;;6.20;99.90;;;;;;5036869;28;20124;-79
2022/01/09 09:37:57;;;;;;;4.05;2.20;;;6.20;99.90;;;;;;5036056;28;20048;-80
2022/01/09 09:40:24;;;;;;;6.07;1.77;;;6.20;99.90;;;;;;5037081;28;20052;-79
2022/01/09 09:42:50;;;;;;;12.57;3.20;;;6.20;99.90;;;;;;5018130;28;20420;-79
2022/01/09 09:45:15;;;;;;;9.30;2.95;;;6.30;99.90;;;;;;5018102;28;20080;-79
2022/01/09 09:47:41;;;;;;;7.40;2.28;;;6.30;99.90;;;;;;5035125;28;20068;-79
2022/01/09 09:50:10;;;;;;;4.47;2.40;;;6.30;99.90;;;;;;5017616;28;20055;-80
2022/01/09 09:52:36;;;;;;;8.77;2.28;;;6.30;99.90;;;;;;5015354;28;20144;-79
2022/01/09 09:55:03;;;;;;;5.47;2.17;;;6.30;99.90;;;;;;5017579;28;20047;-79
2022/01/09 09:57:29;;;;;;;4.07;2.08;;;6.30;99.90;;;;;;5018142;28;20099;-79
2022/01/09 10:00:14;;;;;;;11.00;3.42;;;6.30;99.90;;;;;;5036114;28;20242;-79
2022/01/09 10:02:50;;;;;;;8.00;2.75;;;6.30;99.90;;;;;;5036571;28;20095;-79
2022/01/09 10:05:19;;;;;;;7.38;3.03;;;6.30;99.90;;;;;;5015446;28;20044;-78
2022/01/09 10:07:46;;;;;;;6.82;3.17;;;6.30;99.90;;;;;;5018138;28;20045;-79
2022/01/09 10:10:17;;;;;;;4.82;2.25;;;6.30;99.90;;;;;;5018436;28;20076;-79
2022/01/09 10:12:44;;;;;;;7.93;2.17;;;6.30;99.90;;;;;;5016493;28;20075;-79
2022/01/09 10:15:18;;;;;;;4.45;1.80;;;6.40;99.90;;;;;;5017151;28;20080;-80
2022/01/09 10:17:47;;;;;;;5.68;2.60;;;6.40;99.90;;;;;;5017311;28;20416;-78
2022/01/09 10:20:18;;;;;;;5.30;1.83;;;6.40;99.90;;;;;;5017953;28;20052;-79
2022/01/09 10:22:53;;;;;;;3.17;1.70;;;6.40;99.90;;;;;;5017345;28;20779;-79
2022/01/09 10:25:32;;;;;;;5.00;1.77;;;6.40;99.90;;;;;;5019246;28;20081;-79
2022/01/09 10:28:07;;;;;;;4.60;1.70;;;6.50;99.90;;;;;;5018129;28;20147;-79
2022/01/09 10:30:44;;;;;;;4.75;1.60;;;6.40;99.90;;;;;;5015674;28;20579;-79
2022/01/09 10:33:21;;;;;;;6.40;1.92;;;6.40;99.90;;;;;;5033706;28;20055;-80
2022/01/09 10:35:48;;;;;;;4.35;1.80;;;6.40;99.90;;;;;;5016478;28;20052;-80
2022/01/09 10:38:19;;;;;;;5.05;1.70;;;6.50;99.90;;;;;;5035953;28;20057;-79
2022/01/09 10:40:49;;;;;;;7.50;2.08;;;6.40;99.90;;;;;;5017756;28;20045;-79
2022/01/09 10:43:19;;;;;;;6.88;1.92;;;6.40;99.90;;;;;;5035788;28;20045;-79
2022/01/09 10:45:49;;;;;;;3.72;2.03;;;6.50;99.90;;;;;;5036133;28;20044;-79
2022/01/09 10:48:20;;;;;;;4.93;2.15;;;6.50;99.90;;;;;;5017465;28;20120;-79
2022/01/09 10:50:47;;;;;;;7.53;1.95;;;6.50;99.90;;;;;;5032947;28;20122;-80
2022/01/09 10:53:19;;;;;;;8.43;2.72;;;6.50;99.90;;;;;;5035893;28;20048;-79
2022/01/09 10:56:00;;;;;;;7.50;2.20;;;6.50;99.90;;;;;;5014845;28;20447;-79
2022/01/09 10:58:27;;;;;;;9.15;2.38;;;6.50;99.90;;;;;;5017001;28;20037;-79
2022/01/09 11:01:14;;;;;;;4.22;1.90;;;6.50;99.90;;;;;;5017296;28;20052;-80
2022/01/09 11:03:42;;;;;;;6.63;1.60;;;6.50;99.90;;;;;;5017360;28;20443;-79
2022/01/09 11:06:09;;;;;;;5.35;2.25;;;6.40;99.90;;;;;;5017140;28;20597;-79
2022/01/09 11:08:36;;;;;;;3.25;2.03;;;6.40;99.90;;;;;;5016897;28;20137;-79
2022/01/09 11:11:06;;;;;;;6.03;2.17;;;6.40;99.90;;;;;;5017172;28;20049;-79
2022/01/09 11:13:33;;;;;;;3.75;1.60;;;6.50;99.90;;;;;;5017069;28;20126;-79
2022/01/09 11:18:45;;;;;;;7.22;3.17;;;6.50;99.90;;;;;;5034751;28;20124;-74
2022/01/09 11:21:10;;;;;;;3.22;1.77;;;6.60;99.90;;;;;;5018970;28;20063;-73
2022/01/09 11:24:04;;;;;;;2.67;1.80;;;6.60;99.90;;;;;;5018773;28;20484;-78
2022/01/09 11:26:52;;;;;;;3.50;2.08;;;6.70;99.90;;;;;;5018342;28;20437;-79
2022/01/09 11:29:35;;;;;;;8.07;2.47;;;6.80;99.90;;;;;;5018279;28;20083;-79
2022/01/09 11:32:29;;;;;;;4.07;1.65;;;6.80;99.90;;;;;;5018322;28;20052;-78
2022/01/09 11:35:11;;;;;;;3.30;1.58;;;6.80;99.90;;;;;;5033938;28;20052;-75
2022/01/09 11:38:08;;;;;;;4.20;2.10;;;6.90;99.90;;;;;;5033629;28;20064;-74
2022/01/09 11:40:34;;;;;;;4.75;2.40;;;6.90;99.90;;;;;;4992834;28;20100;-78
2022/01/09 11:43:04;;;;;;;6.47;2.03;;;7.00;99.90;;;;;;5029388;28;20053;-79
2022/01/09 11:45:50;;;;;;;5.95;2.60;;;7.10;99.90;;;;;;5035088;28;20044;-77
2022/01/09 11:48:18;;;;;;;9.63;3.53;;;7.10;99.90;;;;;;5017384;28;20056;-78
2022/01/09 11:51:06;;;;;;;3.83;1.90;;;7.20;99.90;;;;;;5036344;28;20037;-78
2022/01/09 11:53:54;;;;;;;9.27;2.65;;;7.20;99.90;;;;;;5017182;28;20276;-78
2022/01/09 11:56:46;;;;;;;5.32;2.25;;;7.30;99.90;;;;;;5016986;28;20052;-78
2022/01/09 11:59:25;;;;;;;6.35;1.83;;;7.40;99.90;;;;;;5009263;28;20068;-77
2022/01/09 12:01:57;;;;;;;4.85;2.03;;;8.00;99.90;;;;;;5020324;28;20048;-77
2022/01/09 12:04:35;;;;;;;7.10;2.45;;;7.50;99.90;;;;;;5021275;28;20037;-78
2022/01/09 12:07:12;;;;;;;8.10;2.67;;;7.50;99.90;;;;;;5022028;28;20063;-78
2022/01/09 12:09:47;;;;;;;5.18;1.70;;;7.60;99.90;;;;;;5022835;28;20075;-79
2022/01/09 12:12:15;;;;;;;6.53;2.35;;;7.60;99.90;;;;;;5022728;28;20052;-71
2022/01/09 12:17:37;;;;;;;6.28;2.72;;;7.90;99.90;;;;;;5040207;28;20053;-81
2022/01/09 12:20:29;;;;;;;7.65;2.60;;;8.00;99.90;;;;;;5040053;28;20045;-80
2022/01/09 12:23:06;;;;;;;5.03;2.97;;;8.10;99.90;;;;;;5036133;28;20049;-80
2022/01/09 12:25:35;;;;;;;6.10;1.90;;;8.20;99.90;;;;;;5040034;28;20048;-80
2022/01/09 12:28:08;;;;;;;4.97;1.95;;;8.20;99.90;;;;;;5022373;28;20129;-80
2022/01/09 12:30:36;;;;;;;3.75;1.50;;;8.20;99.90;;;;;;5040831;28;20064;-80
2022/01/09 12:33:07;;;;;;;6.85;2.20;;;8.20;99.90;;;;;;5021749;28;20106;-80
2022/01/09 12:35:34;;;;;;;6.50;2.15;;;8.20;99.90;;;;;;5040789;28;20049;-79
2022/01/09 12:38:00;;;;;;;7.68;2.13;;;8.20;99.90;;;;;;5022261;28;20059;-80
2022/01/09 12:40:29;;;;;;;4.38;1.65;;;8.10;99.90;;;;;;5022193;28;20740;-80
2022/01/09 12:42:57;;;;;;;4.85;1.90;;;8.10;99.90;;;;;;5040232;28;20743;-78
2022/01/09 12:45:27;;;;;;;6.30;1.77;;;8.00;99.90;;;;;;5040637;28;20077;-79
2022/01/09 12:47:55;;;;;;;5.25;1.92;;;8.00;99.90;;;;;;5022332;28;20825;-78
2022/01/09 12:50:38;;;;;;;9.32;1.92;;;7.90;99.90;;;;;;5022018;28;20438;-80
2022/01/09 12:53:19;;;;;;;10.02;1.90;;;7.80;99.90;;;;;;5039787;28;20063;-79
2022/01/09 12:56:05;;;;;;;4.05;1.83;;;7.70;99.90;;;;;;5038296;28;20060;-79
2022/01/09 12:58:41;;;;;;;5.40;2.45;;;7.80;99.90;;;;;;5038830;28;20934;-79
2022/01/09 13:01:22;;;;;;;5.93;1.70;;;7.60;99.90;;;;;;5039048;28;20095;-79
2022/01/09 13:03:50;;;;;;;3.88;2.22;;;7.60;99.90;;;;;;5021306;28;20106;-79